Wickham Market, United Kingdom
Current Conditions -  °F | °C
As of 11:50 AM on Tuesday 21 Oct 2014 (Local Time) from EGUW Reporting Station
Broken Clouds Broken Clouds  
Wind Chill: 54°   Ceiling: 4500
Heat Index: 54°   Visibility: 6mi
Dew Point: 39°   Wind: 29mph
Humidity: 58%   Direction: 290°WNW
Pressure: 29.56"   Gusts: 40mph
Location:  52.15°N, 1.36°E
Report Text: EGUW 211050Z 29025G35KT 9999 FEW030 BKN045 12/04 Q1001 BLU TEMPO SHRA SCT020 WHT
Loading
Personal Weather Stations






























Interactive Weather Map
Tropical Storm Tracking
New forecast layout! Learn more

10-Day Weather Forecast

Advertisements
Track Severe Weather on mobile